sensor_id;sensor_type;location;lat;lon;timestamp;P1;durP1;ratioP1;P2;durP2;ratioP2
83022;SDS011;72838;51.820;4.260;2023-11-21T00:00:12;22.30;;;5.22;;
83022;SDS011;72838;51.820;4.260;2023-11-21T00:02:38;22.23;;;5.18;;
83022;SDS011;72838;51.820;4.260;2023-11-21T00:05:06;23.73;;;5.97;;
83022;SDS011;72838;51.820;4.260;2023-11-21T00:07:36;25.75;;;5.43;;
83022;SDS011;72838;51.820;4.260;2023-11-21T00:10:02;15.40;;;4.45;;
83022;SDS011;72838;51.820;4.260;2023-11-21T00:12:32;18.73;;;4.60;;
83022;SDS011;72838;51.820;4.260;2023-11-21T00:14:58;15.35;;;4.10;;
83022;SDS011;72838;51.820;4.260;2023-11-21T00:17:24;24.48;;;4.75;;
83022;SDS011;72838;51.820;4.260;2023-11-21T00:19:49;18.73;;;3.85;;
83022;SDS011;72838;51.820;4.260;2023-11-21T00:22:20;20.00;;;4.00;;
83022;SDS011;72838;51.820;4.260;2023-11-21T00:24:46;20.98;;;3.72;;
83022;SDS011;72838;51.820;4.260;2023-11-21T00:27:12;19.80;;;4.20;;
83022;SDS011;72838;51.820;4.260;2023-11-21T00:29:38;27.38;;;4.10;;
83022;SDS011;72838;51.820;4.260;2023-11-21T00:32:22;18.90;;;4.47;;
83022;SDS011;72838;51.820;4.260;2023-11-21T00:34:47;25.00;;;4.47;;
83022;SDS011;72838;51.820;4.260;2023-11-21T00:37:21;20.00;;;4.43;;
83022;SDS011;72838;51.820;4.260;2023-11-21T00:39:47;23.83;;;4.55;;
83022;SDS011;72838;51.820;4.260;2023-11-21T00:42:12;21.33;;;4.45;;
83022;SDS011;72838;51.820;4.260;2023-11-21T00:44:38;23.17;;;4.63;;
83022;SDS011;72838;51.820;4.260;2023-11-21T00:47:13;30.83;;;5.30;;
83022;SDS011;72838;51.820;4.260;2023-11-21T00:49:39;23.85;;;4.68;;
83022;SDS011;72838;51.820;4.260;2023-11-21T00:52:04;20.52;;;5.35;;
83022;SDS011;72838;51.820;4.260;2023-11-21T00:54:30;28.88;;;4.80;;
83022;SDS011;72838;51.820;4.260;2023-11-21T00:56:55;26.40;;;4.93;;
83022;SDS011;72838;51.820;4.260;2023-11-21T00:59:33;22.33;;;4.90;;
83022;SDS011;72838;51.820;4.260;2023-11-21T01:01:58;18.23;;;5.00;;
83022;SDS011;72838;51.820;4.260;2023-11-21T01:04:25;24.75;;;5.28;;
83022;SDS011;72838;51.820;4.260;2023-11-21T01:06:50;20.38;;;5.97;;
83022;SDS011;72838;51.820;4.260;2023-11-21T01:09:16;23.55;;;5.05;;
83022;SDS011;72838;51.820;4.260;2023-11-21T01:11:43;26.38;;;6.45;;
83022;SDS011;72838;51.820;4.260;2023-11-21T01:14:09;22.83;;;5.85;;
83022;SDS011;72838;51.820;4.260;2023-11-21T01:16:35;20.02;;;6.32;;
83022;SDS011;72838;51.820;4.260;2023-11-21T01:19:01;23.33;;;5.65;;
83022;SDS011;72838;51.820;4.260;2023-11-21T01:21:26;23.75;;;5.55;;
83022;SDS011;72838;51.820;4.260;2023-11-21T01:23:53;29.05;;;5.57;;
83022;SDS011;72838;51.820;4.260;2023-11-21T01:26:20;21.92;;;5.57;;
83022;SDS011;72838;51.820;4.260;2023-11-21T01:28:45;25.77;;;5.30;;
83022;SDS011;72838;51.820;4.260;2023-11-21T01:31:10;21.93;;;5.40;;
83022;SDS011;72838;51.820;4.260;2023-11-21T01:33:36;18.02;;;5.13;;
83022;SDS011;72838;51.820;4.260;2023-11-21T01:36:01;22.35;;;6.03;;
83022;SDS011;72838;51.820;4.260;2023-11-21T01:38:27;20.00;;;5.57;;
83022;SDS011;72838;51.820;4.260;2023-11-21T01:40:52;21.70;;;5.13;;
83022;SDS011;72838;51.820;4.260;2023-11-21T01:43:17;24.65;;;5.15;;
83022;SDS011;72838;51.820;4.260;2023-11-21T01:45:43;22.25;;;5.50;;
83022;SDS011;72838;51.820;4.260;2023-11-21T01:48:10;13.95;;;4.45;;
83022;SDS011;72838;51.820;4.260;2023-11-21T01:50:35;15.00;;;4.63;;
83022;SDS011;72838;51.820;4.260;2023-11-21T01:53:01;20.17;;;5.10;;
83022;SDS011;72838;51.820;4.260;2023-11-21T01:55:32;17.23;;;4.55;;
83022;SDS011;72838;51.820;4.260;2023-11-21T01:57:58;16.48;;;4.35;;
83022;SDS011;72838;51.820;4.260;2023-11-21T02:00:24;14.75;;;4.70;;
83022;SDS011;72838;51.820;4.260;2023-11-21T02:02:51;17.88;;;4.25;;
83022;SDS011;72838;51.820;4.260;2023-11-21T02:05:17;14.23;;;3.67;;
83022;SDS011;72838;51.820;4.260;2023-11-21T02:07:49;14.25;;;3.70;;
83022;SDS011;72838;51.820;4.260;2023-11-21T02:10:17;16.17;;;3.72;;
83022;SDS011;72838;51.820;4.260;2023-11-21T02:12:47;10.82;;;3.58;;
83022;SDS011;72838;51.820;4.260;2023-11-21T02:15:16;10.73;;;3.47;;
83022;SDS011;72838;51.820;4.260;2023-11-21T02:17:48;13.10;;;3.33;;
83022;SDS011;72838;51.820;4.260;2023-11-21T02:20:19;10.05;;;3.30;;
83022;SDS011;72838;51.820;4.260;2023-11-21T02:22:54;11.48;;;3.65;;
83022;SDS011;72838;51.820;4.260;2023-11-21T02:25:25;13.63;;;3.95;;
83022;SDS011;72838;51.820;4.260;2023-11-21T02:27:57;14.60;;;3.75;;
83022;SDS011;72838;51.820;4.260;2023-11-21T02:30:23;15.70;;;3.35;;
83022;SDS011;72838;51.820;4.260;2023-11-21T02:32:50;13.52;;;3.40;;
83022;SDS011;72838;51.820;4.260;2023-11-21T02:35:18;18.60;;;4.15;;
83022;SDS011;72838;51.820;4.260;2023-11-21T02:37:46;14.05;;;3.40;;
83022;SDS011;72838;51.820;4.260;2023-11-21T02:40:11;11.77;;;3.38;;
83022;SDS011;72838;51.820;4.260;2023-11-21T02:42:37;13.20;;;3.35;;
83022;SDS011;72838;51.820;4.260;2023-11-21T02:45:04;12.75;;;3.80;;
83022;SDS011;72838;51.820;4.260;2023-11-21T02:47:30;13.20;;;3.65;;
83022;SDS011;72838;51.820;4.260;2023-11-21T02:49:56;9.15;;;3.03;;
83022;SDS011;72838;51.820;4.260;2023-11-21T02:52:24;11.98;;;3.58;;
83022;SDS011;72838;51.820;4.260;2023-11-21T02:54:50;14.25;;;3.47;;
83022;SDS011;72838;51.820;4.260;2023-11-21T02:57:27;15.77;;;3.50;;
83022;SDS011;72838;51.820;4.260;2023-11-21T02:59:53;17.40;;;4.10;;
83022;SDS011;72838;51.820;4.260;2023-11-21T03:02:19;17.25;;;4.05;;
83022;SDS011;72838;51.820;4.260;2023-11-21T03:04:45;18.70;;;4.97;;
83022;SDS011;72838;51.820;4.260;2023-11-21T03:07:10;12.98;;;4.10;;
83022;SDS011;72838;51.820;4.260;2023-11-21T03:09:47;12.35;;;4.10;;
83022;SDS011;72838;51.820;4.260;2023-11-21T03:12:13;12.55;;;3.78;;
83022;SDS011;72838;51.820;4.260;2023-11-21T03:14:41;18.60;;;4.53;;
83022;SDS011;72838;51.820;4.260;2023-11-21T03:17:07;11.68;;;3.95;;
83022;SDS011;72838;51.820;4.260;2023-11-21T03:19:32;14.60;;;4.10;;
83022;SDS011;72838;51.820;4.260;2023-11-21T03:21:57;11.90;;;3.78;;
83022;SDS011;72838;51.820;4.260;2023-11-21T03:24:23;12.75;;;4.00;;
83022;SDS011;72838;51.820;4.260;2023-11-21T03:26:51;12.18;;;3.80;;
83022;SDS011;72838;51.820;4.260;2023-11-21T03:29:16;16.13;;;4.47;;
83022;SDS011;72838;51.820;4.260;2023-11-21T03:31:43;14.70;;;3.70;;
83022;SDS011;72838;51.820;4.260;2023-11-21T03:34:16;13.75;;;3.65;;
83022;SDS011;72838;51.820;4.260;2023-11-21T03:36:52;18.30;;;4.63;;
83022;SDS011;72838;51.820;4.260;2023-11-21T03:39:19;18.60;;;3.97;;
83022;SDS011;72838;51.820;4.260;2023-11-21T03:41:45;17.13;;;4.85;;
83022;SDS011;72838;51.820;4.260;2023-11-21T03:44:11;22.63;;;5.20;;
83022;SDS011;72838;51.820;4.260;2023-11-21T03:46:36;18.75;;;4.70;;
83022;SDS011;72838;51.820;4.260;2023-11-21T03:49:02;19.77;;;5.47;;
83022;SDS011;72838;51.820;4.260;2023-11-21T03:51:27;24.05;;;5.65;;
83022;SDS011;72838;51.820;4.260;2023-11-21T03:53:52;17.45;;;4.55;;
83022;SDS011;72838;51.820;4.260;2023-11-21T03:56:18;25.90;;;4.55;;
83022;SDS011;72838;51.820;4.260;2023-11-21T03:58:47;22.67;;;5.70;;
83022;SDS011;72838;51.820;4.260;2023-11-21T04:01:22;23.65;;;4.45;;
83022;SDS011;72838;51.820;4.260;2023-11-21T04:03:48;18.55;;;4.45;;
83022;SDS011;72838;51.820;4.260;2023-11-21T04:06:14;20.80;;;4.60;;
83022;SDS011;72838;51.820;4.260;2023-11-21T04:08:42;16.73;;;4.35;;
83022;SDS011;72838;51.820;4.260;2023-11-21T04:11:09;16.80;;;4.00;;
83022;SDS011;72838;51.820;4.260;2023-11-21T04:13:36;16.35;;;4.57;;
83022;SDS011;72838;51.820;4.260;2023-11-21T04:16:02;19.90;;;5.35;;
83022;SDS011;72838;51.820;4.260;2023-11-21T04:18:28;19.85;;;5.05;;
83022;SDS011;72838;51.820;4.260;2023-11-21T04:20:53;20.08;;;4.85;;
83022;SDS011;72838;51.820;4.260;2023-11-21T04:23:19;20.90;;;5.03;;
83022;SDS011;72838;51.820;4.260;2023-11-21T04:25:44;21.48;;;5.88;;
83022;SDS011;72838;51.820;4.260;2023-11-21T04:28:09;18.65;;;5.03;;
83022;SDS011;72838;51.820;4.260;2023-11-21T04:30:35;26.70;;;5.95;;
83022;SDS011;72838;51.820;4.260;2023-11-21T04:33:00;22.77;;;5.65;;
83022;SDS011;72838;51.820;4.260;2023-11-21T04:35:26;22.70;;;5.63;;
83022;SDS011;72838;51.820;4.260;2023-11-21T04:37:51;23.63;;;5.15;;
83022;SDS011;72838;51.820;4.260;2023-11-21T04:40:17;27.33;;;5.95;;
83022;SDS011;72838;51.820;4.260;2023-11-21T04:42:42;24.75;;;6.13;;
83022;SDS011;72838;51.820;4.260;2023-11-21T04:45:11;30.23;;;6.63;;
83022;SDS011;72838;51.820;4.260;2023-11-21T04:47:36;26.33;;;6.80;;
83022;SDS011;72838;51.820;4.260;2023-11-21T04:50:02;21.80;;;5.60;;
83022;SDS011;72838;51.820;4.260;2023-11-21T04:52:40;25.92;;;5.85;;
83022;SDS011;72838;51.820;4.260;2023-11-21T04:55:06;21.73;;;5.47;;
83022;SDS011;72838;51.820;4.260;2023-11-21T04:57:35;23.67;;;5.68;;
83022;SDS011;72838;51.820;4.260;2023-11-21T05:00:20;24.90;;;6.38;;
83022;SDS011;72838;51.820;4.260;2023-11-21T05:02:46;26.80;;;6.15;;
83022;SDS011;72838;51.820;4.260;2023-11-21T05:05:12;30.35;;;6.78;;
83022;SDS011;72838;51.820;4.260;2023-11-21T05:07:57;29.33;;;7.03;;
83022;SDS011;72838;51.820;4.260;2023-11-21T05:10:23;42.75;;;7.07;;
83022;SDS011;72838;51.820;4.260;2023-11-21T05:12:57;32.67;;;6.88;;
83022;SDS011;72838;51.820;4.260;2023-11-21T05:15:25;39.30;;;6.90;;
83022;SDS011;72838;51.820;4.260;2023-11-21T05:17:52;27.75;;;6.50;;
83022;SDS011;72838;51.820;4.260;2023-11-21T05:20:37;35.17;;;7.43;;
83022;SDS011;72838;51.820;4.260;2023-11-21T05:23:03;34.88;;;7.35;;
83022;SDS011;72838;51.820;4.260;2023-11-21T05:25:43;41.20;;;7.10;;
83022;SDS011;72838;51.820;4.260;2023-11-21T05:28:11;40.83;;;7.97;;
83022;SDS011;72838;51.820;4.260;2023-11-21T05:30:37;35.50;;;7.57;;
83022;SDS011;72838;51.820;4.260;2023-11-21T05:33:10;33.33;;;7.82;;
83022;SDS011;72838;51.820;4.260;2023-11-21T05:35:35;33.97;;;7.80;;
83022;SDS011;72838;51.820;4.260;2023-11-21T05:38:01;34.22;;;8.93;;
83022;SDS011;72838;51.820;4.260;2023-11-21T05:40:26;35.87;;;8.93;;
83022;SDS011;72838;51.820;4.260;2023-11-21T05:42:54;36.08;;;8.93;;
83022;SDS011;72838;51.820;4.260;2023-11-21T05:45:21;41.75;;;9.70;;
83022;SDS011;72838;51.820;4.260;2023-11-21T05:47:46;36.33;;;8.57;;
83022;SDS011;72838;51.820;4.260;2023-11-21T05:50:14;28.42;;;8.07;;
83022;SDS011;72838;51.820;4.260;2023-11-21T05:52:44;29.67;;;8.00;;
83022;SDS011;72838;51.820;4.260;2023-11-21T05:55:10;34.03;;;7.95;;
83022;SDS011;72838;51.820;4.260;2023-11-21T05:57:39;31.98;;;8.15;;
83022;SDS011;72838;51.820;4.260;2023-11-21T06:02:43;32.92;;;7.72;;
83022;SDS011;72838;51.820;4.260;2023-11-21T06:05:09;42.25;;;8.27;;
83022;SDS011;72838;51.820;4.260;2023-11-21T06:07:35;34.10;;;8.70;;
83022;SDS011;72838;51.820;4.260;2023-11-21T06:10:03;36.50;;;7.80;;
83022;SDS011;72838;51.820;4.260;2023-11-21T06:12:36;45.67;;;8.95;;
83022;SDS011;72838;51.820;4.260;2023-11-21T06:15:08;40.67;;;8.90;;
83022;SDS011;72838;51.820;4.260;2023-11-21T06:17:41;39.10;;;9.35;;
83022;SDS011;72838;51.820;4.260;2023-11-21T06:20:08;46.35;;;8.93;;
83022;SDS011;72838;51.820;4.260;2023-11-21T06:22:41;51.85;;;11.13;;
83022;SDS011;72838;51.820;4.260;2023-11-21T06:25:08;59.72;;;11.73;;
83022;SDS011;72838;51.820;4.260;2023-11-21T06:27:40;83.80;;;13.32;;
83022;SDS011;72838;51.820;4.260;2023-11-21T06:30:13;69.95;;;12.70;;
83022;SDS011;72838;51.820;4.260;2023-11-21T06:32:40;60.45;;;11.98;;
83022;SDS011;72838;51.820;4.260;2023-11-21T06:35:18;57.30;;;12.02;;
83022;SDS011;72838;51.820;4.260;2023-11-21T06:37:44;46.85;;;10.65;;
83022;SDS011;72838;51.820;4.260;2023-11-21T06:40:12;43.17;;;10.95;;
83022;SDS011;72838;51.820;4.260;2023-11-21T06:42:40;53.97;;;11.63;;
83022;SDS011;72838;51.820;4.260;2023-11-21T06:45:18;41.50;;;10.32;;
83022;SDS011;72838;51.820;4.260;2023-11-21T06:47:45;41.78;;;9.38;;
83022;SDS011;72838;51.820;4.260;2023-11-21T06:50:10;41.92;;;9.75;;
83022;SDS011;72838;51.820;4.260;2023-11-21T06:52:35;41.95;;;10.40;;
83022;SDS011;72838;51.820;4.260;2023-11-21T06:55:01;49.05;;;10.45;;
83022;SDS011;72838;51.820;4.260;2023-11-21T06:57:26;44.83;;;11.02;;
83022;SDS011;72838;51.820;4.260;2023-11-21T06:59:52;52.75;;;12.00;;
83022;SDS011;72838;51.820;4.260;2023-11-21T07:02:17;38.63;;;9.95;;
83022;SDS011;72838;51.820;4.260;2023-11-21T07:04:45;44.50;;;10.80;;
83022;SDS011;72838;51.820;4.260;2023-11-21T07:07:11;36.83;;;8.48;;
83022;SDS011;72838;51.820;4.260;2023-11-21T07:09:47;34.05;;;8.32;;
83022;SDS011;72838;51.820;4.260;2023-11-21T07:12:13;29.85;;;7.60;;
83022;SDS011;72838;51.820;4.260;2023-11-21T07:14:39;26.27;;;8.05;;
83022;SDS011;72838;51.820;4.260;2023-11-21T07:17:06;32.28;;;8.52;;
83022;SDS011;72838;51.820;4.260;2023-11-21T07:19:38;28.83;;;7.95;;
83022;SDS011;72838;51.820;4.260;2023-11-21T07:22:03;30.60;;;7.88;;
83022;SDS011;72838;51.820;4.260;2023-11-21T07:27:25;30.48;;;8.00;;
83022;SDS011;72838;51.820;4.260;2023-11-21T07:29:51;29.73;;;7.90;;
83022;SDS011;72838;51.820;4.260;2023-11-21T07:32:20;29.50;;;8.05;;
83022;SDS011;72838;51.820;4.260;2023-11-21T07:34:45;43.75;;;8.13;;
83022;SDS011;72838;51.820;4.260;2023-11-21T07:37:11;35.35;;;7.90;;
83022;SDS011;72838;51.820;4.260;2023-11-21T07:39:37;39.33;;;8.20;;
83022;SDS011;72838;51.820;4.260;2023-11-21T07:42:18;37.10;;;7.93;;
83022;SDS011;72838;51.820;4.260;2023-11-21T07:44:46;30.55;;;8.00;;
83022;SDS011;72838;51.820;4.260;2023-11-21T07:47:17;36.15;;;8.07;;
83022;SDS011;72838;51.820;4.260;2023-11-21T07:49:54;25.15;;;7.20;;
83022;SDS011;72838;51.820;4.260;2023-11-21T07:52:21;30.05;;;7.43;;
83022;SDS011;72838;51.820;4.260;2023-11-21T07:55:12;38.35;;;7.60;;
83022;SDS011;72838;51.820;4.260;2023-11-21T07:57:52;33.88;;;7.00;;
83022;SDS011;72838;51.820;4.260;2023-11-21T08:00:18;32.00;;;6.70;;
83022;SDS011;72838;51.820;4.260;2023-11-21T08:02:54;28.20;;;6.65;;
83022;SDS011;72838;51.820;4.260;2023-11-21T08:05:38;29.05;;;6.60;;
83022;SDS011;72838;51.820;4.260;2023-11-21T08:08:18;25.25;;;6.20;;
83022;SDS011;72838;51.820;4.260;2023-11-21T08:10:46;29.70;;;6.07;;
83022;SDS011;72838;51.820;4.260;2023-11-21T08:13:30;33.55;;;6.50;;
83022;SDS011;72838;51.820;4.260;2023-11-21T08:16:08;32.97;;;7.20;;
83022;SDS011;72838;51.820;4.260;2023-11-21T08:18:34;24.90;;;5.68;;
83022;SDS011;72838;51.820;4.260;2023-11-21T08:21:00;24.35;;;5.57;;
83022;SDS011;72838;51.820;4.260;2023-11-21T08:23:33;22.85;;;5.18;;
83022;SDS011;72838;51.820;4.260;2023-11-21T08:26:00;23.45;;;5.15;;
83022;SDS011;72838;51.820;4.260;2023-11-21T08:28:27;31.85;;;6.43;;
83022;SDS011;72838;51.820;4.260;2023-11-21T08:33:34;26.35;;;4.68;;
83022;SDS011;72838;51.820;4.260;2023-11-21T08:35:59;26.33;;;5.28;;
83022;SDS011;72838;51.820;4.260;2023-11-21T08:38:26;22.65;;;4.43;;
83022;SDS011;72838;51.820;4.260;2023-11-21T08:41:05;35.53;;;6.43;;
83022;SDS011;72838;51.820;4.260;2023-11-21T08:43:37;20.55;;;5.30;;
83022;SDS011;72838;51.820;4.260;2023-11-21T08:46:12;21.25;;;5.05;;
83022;SDS011;72838;51.820;4.260;2023-11-21T08:48:38;25.10;;;4.75;;
83022;SDS011;72838;51.820;4.260;2023-11-21T08:51:03;16.45;;;4.43;;
83022;SDS011;72838;51.820;4.260;2023-11-21T08:53:29;23.38;;;5.10;;
83022;SDS011;72838;51.820;4.260;2023-11-21T08:56:07;22.63;;;5.40;;
83022;SDS011;72838;51.820;4.260;2023-11-21T08:58:38;24.27;;;5.47;;
83022;SDS011;72838;51.820;4.260;2023-11-21T09:01:04;24.75;;;5.60;;
83022;SDS011;72838;51.820;4.260;2023-11-21T09:03:45;30.92;;;4.97;;
83022;SDS011;72838;51.820;4.260;2023-11-21T09:06:11;22.90;;;5.38;;
83022;SDS011;72838;51.820;4.260;2023-11-21T09:08:37;28.20;;;5.28;;
83022;SDS011;72838;51.820;4.260;2023-11-21T09:11:02;24.00;;;5.78;;
83022;SDS011;72838;51.820;4.260;2023-11-21T09:13:40;21.55;;;5.03;;
83022;SDS011;72838;51.820;4.260;2023-11-21T09:16:06;20.85;;;4.90;;
83022;SDS011;72838;51.820;4.260;2023-11-21T09:18:32;22.20;;;4.95;;
83022;SDS011;72838;51.820;4.260;2023-11-21T09:20:57;20.95;;;4.53;;
83022;SDS011;72838;51.820;4.260;2023-11-21T09:23:23;16.50;;;4.22;;
83022;SDS011;72838;51.820;4.260;2023-11-21T09:26:09;18.13;;;4.70;;
83022;SDS011;72838;51.820;4.260;2023-11-21T09:28:35;20.33;;;4.63;;
83022;SDS011;72838;51.820;4.260;2023-11-21T09:31:06;15.73;;;4.35;;
83022;SDS011;72838;51.820;4.260;2023-11-21T09:33:42;20.73;;;4.03;;
83022;SDS011;72838;51.820;4.260;2023-11-21T09:36:12;21.00;;;3.95;;
83022;SDS011;72838;51.820;4.260;2023-11-21T09:38:38;14.32;;;3.92;;
83022;SDS011;72838;51.820;4.260;2023-11-21T09:41:37;18.08;;;4.18;;
83022;SDS011;72838;51.820;4.260;2023-11-21T09:44:45;16.55;;;4.32;;
83022;SDS011;72838;51.820;4.260;2023-11-21T09:47:14;14.25;;;4.55;;
83022;SDS011;72838;51.820;4.260;2023-11-21T09:49:41;25.45;;;4.47;;
83022;SDS011;72838;51.820;4.260;2023-11-21T09:52:11;16.10;;;4.55;;
83022;SDS011;72838;51.820;4.260;2023-11-21T09:54:47;19.75;;;5.47;;
83022;SDS011;72838;51.820;4.260;2023-11-21T09:57:14;14.68;;;4.68;;
83022;SDS011;72838;51.820;4.260;2023-11-21T09:59:40;19.10;;;5.80;;
83022;SDS011;72838;51.820;4.260;2023-11-21T10:02:06;18.25;;;5.90;;
83022;SDS011;72838;51.820;4.260;2023-11-21T10:04:37;19.70;;;6.45;;
83022;SDS011;72838;51.820;4.260;2023-11-21T10:07:03;17.58;;;6.82;;
83022;SDS011;72838;51.820;4.260;2023-11-21T10:09:29;18.13;;;6.68;;
83022;SDS011;72838;51.820;4.260;2023-11-21T10:11:54;14.48;;;5.88;;
83022;SDS011;72838;51.820;4.260;2023-11-21T10:14:21;12.55;;;5.57;;
83022;SDS011;72838;51.820;4.260;2023-11-21T10:17:00;16.08;;;6.18;;
83022;SDS011;72838;51.820;4.260;2023-11-21T10:19:37;12.98;;;5.70;;
83022;SDS011;72838;51.820;4.260;2023-11-21T10:22:04;12.23;;;6.43;;
83022;SDS011;72838;51.820;4.260;2023-11-21T10:27:14;17.15;;;6.38;;
83022;SDS011;72838;51.820;4.260;2023-11-21T10:29:51;14.90;;;5.65;;
83022;SDS011;72838;51.820;4.260;2023-11-21T10:32:16;18.20;;;5.90;;
83022;SDS011;72838;51.820;4.260;2023-11-21T10:34:42;14.88;;;4.82;;
83022;SDS011;72838;51.820;4.260;2023-11-21T10:37:13;11.98;;;4.78;;
83022;SDS011;72838;51.820;4.260;2023-11-21T10:39:40;20.40;;;5.10;;
83022;SDS011;72838;51.820;4.260;2023-11-21T10:42:08;18.73;;;5.25;;
83022;SDS011;72838;51.820;4.260;2023-11-21T10:44:35;15.57;;;5.78;;
83022;SDS011;72838;51.820;4.260;2023-11-21T10:47:00;14.95;;;5.60;;
83022;SDS011;72838;51.820;4.260;2023-11-21T10:49:27;15.45;;;5.80;;
83022;SDS011;72838;51.820;4.260;2023-11-21T10:51:53;15.77;;;6.40;;
83022;SDS011;72838;51.820;4.260;2023-11-21T10:54:21;14.82;;;5.13;;
83022;SDS011;72838;51.820;4.260;2023-11-21T10:56:49;17.77;;;6.78;;
83022;SDS011;72838;51.820;4.260;2023-11-21T10:59:18;14.10;;;5.15;;
83022;SDS011;72838;51.820;4.260;2023-11-21T11:01:46;14.30;;;5.50;;
83022;SDS011;72838;51.820;4.260;2023-11-21T11:04:15;15.07;;;4.97;;
83022;SDS011;72838;51.820;4.260;2023-11-21T11:06:56;15.20;;;5.55;;
83022;SDS011;72838;51.820;4.260;2023-11-21T11:09:23;10.73;;;4.13;;
83022;SDS011;72838;51.820;4.260;2023-11-21T11:11:48;11.35;;;4.03;;
83022;SDS011;72838;51.820;4.260;2023-11-21T11:14:14;10.95;;;3.53;;
83022;SDS011;72838;51.820;4.260;2023-11-21T11:16:41;11.27;;;3.75;;
83022;SDS011;72838;51.820;4.260;2023-11-21T11:19:09;12.00;;;4.00;;
83022;SDS011;72838;51.820;4.260;2023-11-21T11:30:27;14.65;;;5.00;;
83022;SDS011;72838;51.820;4.260;2023-11-21T11:33:39;11.43;;;4.22;;
83022;SDS011;72838;51.820;4.260;2023-11-21T11:36:10;14.15;;;4.50;;
83022;SDS011;72838;51.820;4.260;2023-11-21T11:38:46;14.98;;;4.93;;
83022;SDS011;72838;51.820;4.260;2023-11-21T11:41:27;16.60;;;5.25;;
83022;SDS011;72838;51.820;4.260;2023-11-21T11:43:58;17.30;;;5.10;;
83022;SDS011;72838;51.820;4.260;2023-11-21T11:49:24;15.60;;;5.93;;
83022;SDS011;72838;51.820;4.260;2023-11-21T11:54:56;16.45;;;5.75;;
83022;SDS011;72838;51.820;4.260;2023-11-21T11:57:29;16.17;;;5.55;;
83022;SDS011;72838;51.820;4.260;2023-11-21T12:02:41;18.45;;;6.43;;
83022;SDS011;72838;51.820;4.260;2023-11-21T12:05:12;19.73;;;5.75;;
83022;SDS011;72838;51.820;4.260;2023-11-21T12:07:49;20.55;;;6.47;;
83022;SDS011;72838;51.820;4.260;2023-11-21T12:10:24;21.00;;;7.35;;
83022;SDS011;72838;51.820;4.260;2023-11-21T12:12:57;22.30;;;6.85;;
83022;SDS011;72838;51.820;4.260;2023-11-21T12:15:24;18.10;;;7.05;;
83022;SDS011;72838;51.820;4.260;2023-11-21T12:17:51;25.80;;;7.90;;
83022;SDS011;72838;51.820;4.260;2023-11-21T12:20:19;22.20;;;7.53;;
83022;SDS011;72838;51.820;4.260;2023-11-21T12:22:49;23.85;;;8.60;;
83022;SDS011;72838;51.820;4.260;2023-11-21T12:25:18;26.38;;;9.35;;
83022;SDS011;72838;51.820;4.260;2023-11-21T12:27:54;26.55;;;9.60;;
83022;SDS011;72838;51.820;4.260;2023-11-21T12:30:20;28.75;;;10.10;;
83022;SDS011;72838;51.820;4.260;2023-11-21T12:32:48;27.65;;;9.88;;
83022;SDS011;72838;51.820;4.260;2023-11-21T12:35:16;26.52;;;9.73;;
83022;SDS011;72838;51.820;4.260;2023-11-21T12:37:44;26.38;;;9.90;;
83022;SDS011;72838;51.820;4.260;2023-11-21T12:40:12;23.48;;;9.18;;
83022;SDS011;72838;51.820;4.260;2023-11-21T12:42:50;24.00;;;8.82;;
83022;SDS011;72838;51.820;4.260;2023-11-21T12:45:22;25.73;;;8.43;;
83022;SDS011;72838;51.820;4.260;2023-11-21T12:47:51;21.88;;;8.68;;
83022;SDS011;72838;51.820;4.260;2023-11-21T12:50:22;27.77;;;10.20;;
83022;SDS011;72838;51.820;4.260;2023-11-21T12:52:49;26.38;;;9.75;;
83022;SDS011;72838;51.820;4.260;2023-11-21T12:55:16;24.60;;;9.40;;
83022;SDS011;72838;51.820;4.260;2023-11-21T12:57:43;29.23;;;9.68;;
83022;SDS011;72838;51.820;4.260;2023-11-21T13:00:09;30.95;;;9.05;;
83022;SDS011;72838;51.820;4.260;2023-11-21T13:02:49;27.45;;;8.70;;
83022;SDS011;72838;51.820;4.260;2023-11-21T13:05:23;24.38;;;9.02;;
83022;SDS011;72838;51.820;4.260;2023-11-21T13:07:53;24.73;;;8.73;;
83022;SDS011;72838;51.820;4.260;2023-11-21T13:10:21;25.17;;;8.50;;
83022;SDS011;72838;51.820;4.260;2023-11-21T13:12:51;20.02;;;6.70;;
83022;SDS011;72838;51.820;4.260;2023-11-21T13:15:17;18.42;;;6.80;;
83022;SDS011;72838;51.820;4.260;2023-11-21T13:17:45;18.17;;;6.82;;
83022;SDS011;72838;51.820;4.260;2023-11-21T13:20:11;29.17;;;8.70;;
83022;SDS011;72838;51.820;4.260;2023-11-21T13:22:55;24.02;;;7.78;;
83022;SDS011;72838;51.820;4.260;2023-11-21T13:25:27;25.30;;;8.05;;
83022;SDS011;72838;51.820;4.260;2023-11-21T13:27:53;22.48;;;8.50;;
83022;SDS011;72838;51.820;4.260;2023-11-21T13:30:28;21.67;;;8.02;;
83022;SDS011;72838;51.820;4.260;2023-11-21T13:33:02;24.20;;;9.20;;
83022;SDS011;72838;51.820;4.260;2023-11-21T13:35:35;22.70;;;9.30;;
83022;SDS011;72838;51.820;4.260;2023-11-21T13:38:12;25.00;;;10.02;;
83022;SDS011;72838;51.820;4.260;2023-11-21T13:40:46;27.05;;;9.52;;
83022;SDS011;72838;51.820;4.260;2023-11-21T13:43:15;30.45;;;9.70;;
83022;SDS011;72838;51.820;4.260;2023-11-21T13:45:43;26.30;;;9.32;;
83022;SDS011;72838;51.820;4.260;2023-11-21T13:48:10;27.25;;;8.73;;
83022;SDS011;72838;51.820;4.260;2023-11-21T13:50:41;18.42;;;7.63;;
83022;SDS011;72838;51.820;4.260;2023-11-21T13:53:20;19.52;;;7.30;;
83022;SDS011;72838;51.820;4.260;2023-11-21T13:55:50;16.50;;;6.13;;
83022;SDS011;72838;51.820;4.260;2023-11-21T13:58:16;13.63;;;5.47;;
83022;SDS011;72838;51.820;4.260;2023-11-21T14:00:56;14.27;;;5.60;;
83022;SDS011;72838;51.820;4.260;2023-11-21T14:03:22;12.43;;;4.88;;
83022;SDS011;72838;51.820;4.260;2023-11-21T14:05:57;12.05;;;4.97;;
83022;SDS011;72838;51.820;4.260;2023-11-21T14:08:25;14.38;;;5.72;;
83022;SDS011;72838;51.820;4.260;2023-11-21T14:10:54;20.90;;;6.50;;
83022;SDS011;72838;51.820;4.260;2023-11-21T14:13:24;22.30;;;6.95;;
83022;SDS011;72838;51.820;4.260;2023-11-21T14:15:50;22.75;;;8.27;;
83022;SDS011;72838;51.820;4.260;2023-11-21T14:18:23;20.55;;;7.57;;
83022;SDS011;72838;51.820;4.260;2023-11-21T14:20:55;20.75;;;8.32;;
83022;SDS011;72838;51.820;4.260;2023-11-21T14:23:21;21.27;;;8.20;;
83022;SDS011;72838;51.820;4.260;2023-11-21T14:25:48;21.60;;;8.35;;
83022;SDS011;72838;51.820;4.260;2023-11-21T14:28:14;26.27;;;7.97;;
83022;SDS011;72838;51.820;4.260;2023-11-21T14:30:40;31.17;;;8.75;;
83022;SDS011;72838;51.820;4.260;2023-11-21T14:33:07;21.20;;;7.88;;
83022;SDS011;72838;51.820;4.260;2023-11-21T14:35:33;25.70;;;8.95;;
83022;SDS011;72838;51.820;4.260;2023-11-21T14:38:02;24.20;;;8.32;;
83022;SDS011;72838;51.820;4.260;2023-11-21T14:40:29;26.95;;;9.13;;
83022;SDS011;72838;51.820;4.260;2023-11-21T14:42:59;27.88;;;9.15;;
83022;SDS011;72838;51.820;4.260;2023-11-21T14:45:25;33.35;;;10.15;;
83022;SDS011;72838;51.820;4.260;2023-11-21T14:47:52;28.45;;;9.85;;
83022;SDS011;72838;51.820;4.260;2023-11-21T14:50:35;22.40;;;8.52;;
83022;SDS011;72838;51.820;4.260;2023-11-21T14:53:22;23.38;;;8.38;;
83022;SDS011;72838;51.820;4.260;2023-11-21T14:56:07;24.75;;;8.98;;
83022;SDS011;72838;51.820;4.260;2023-11-21T14:58:34;28.25;;;9.27;;
83022;SDS011;72838;51.820;4.260;2023-11-21T15:01:01;24.88;;;9.70;;
83022;SDS011;72838;51.820;4.260;2023-11-21T15:03:36;31.30;;;9.82;;
83022;SDS011;72838;51.820;4.260;2023-11-21T15:06:14;33.83;;;9.40;;
83022;SDS011;72838;51.820;4.260;2023-11-21T15:08:49;25.83;;;8.77;;
83022;SDS011;72838;51.820;4.260;2023-11-21T15:11:25;27.50;;;9.38;;
83022;SDS011;72838;51.820;4.260;2023-11-21T15:13:57;27.67;;;8.48;;